createdAt,value
2019-04-28T00:01:22.513Z,2.03
2019-04-28T00:03:52.206Z,1.87
2019-04-28T00:06:21.922Z,1.40
2019-04-28T00:08:51.839Z,1.37
2019-04-28T00:11:22.759Z,2.30
2019-04-28T00:13:53.582Z,1.93
2019-04-28T00:16:23.598Z,2.07
2019-04-28T00:18:53.389Z,2.10
2019-04-28T00:21:32.429Z,1.60
2019-04-28T00:24:23.005Z,2.27
2019-04-28T00:27:01.797Z,2.37
2019-04-28T00:29:40.042Z,1.63
2019-04-28T00:32:03.113Z,1.73
2019-04-28T00:34:32.743Z,1.80
2019-04-28T00:37:24.508Z,1.60
2019-04-28T00:39:54.191Z,1.63
2019-04-28T00:42:23.886Z,2.20
2019-04-28T00:44:54.074Z,1.67
2019-04-28T00:47:24.142Z,3.03
2019-04-28T00:49:53.748Z,2.47
2019-04-28T00:52:23.345Z,1.33
2019-04-28T00:54:53.086Z,1.90
2019-04-28T00:57:22.777Z,1.63
2019-04-28T00:59:58.245Z,1.70
2019-04-28T01:02:34.682Z,2.47
2019-04-28T01:05:05.070Z,1.97
2019-04-28T01:07:34.773Z,2.73
2019-04-28T01:10:05.441Z,3.07
2019-04-28T01:12:36.268Z,1.67
2019-04-28T01:15:13.117Z,2.77
2019-04-28T01:17:52.903Z,2.93
2019-04-28T01:20:22.983Z,2.30
2019-04-28T01:22:52.597Z,2.77
2019-04-28T01:25:22.340Z,2.30
2019-04-28T01:28:12.166Z,2.57
2019-04-28T01:30:50.281Z,1.73
2019-04-28T01:33:26.746Z,2.20
2019-04-28T01:35:56.583Z,2.17
2019-04-28T01:38:26.226Z,1.97
2019-04-28T01:40:55.931Z,2.23
2019-04-28T01:43:25.609Z,2.07
2019-04-28T01:45:55.221Z,2.10
2019-04-28T01:48:25.137Z,1.93
2019-04-28T01:50:54.742Z,2.33
2019-04-28T01:53:25.451Z,1.93
2019-04-28T01:55:55.029Z,2.20
2019-04-28T01:58:24.667Z,2.30
2019-04-28T02:00:54.291Z,3.20
2019-04-28T02:03:23.928Z,1.93
2019-04-28T02:05:53.542Z,2.00
2019-04-28T02:08:23.155Z,2.43
2019-04-28T02:10:52.828Z,2.87
2019-04-28T02:13:22.457Z,2.30
2019-04-28T02:15:52.158Z,2.43
2019-04-28T02:18:21.774Z,2.70
2019-04-28T02:20:59.670Z,2.33
2019-04-28T02:23:31.163Z,1.97
2019-04-28T02:26:00.782Z,2.27
2019-04-28T02:28:30.402Z,2.03
2019-04-28T02:31:02.300Z,2.40
2019-04-28T02:33:31.462Z,3.37
2019-04-28T02:36:01.636Z,3.27
2019-04-28T02:38:34.384Z,2.30
2019-04-28T02:41:03.672Z,2.47
2019-04-28T02:43:33.786Z,2.37
2019-04-28T02:46:03.454Z,2.57
2019-04-28T02:48:34.144Z,2.37
2019-04-28T02:51:20.896Z,2.60
2019-04-28T02:53:51.357Z,1.40
2019-04-28T02:56:21.367Z,1.87
2019-04-28T02:58:51.324Z,3.37
2019-04-28T03:01:26.384Z,2.57
2019-04-28T03:03:54.057Z,3.17
2019-04-28T03:06:23.690Z,2.83
2019-04-28T03:08:53.361Z,2.90
2019-04-28T03:11:23.034Z,3.13
2019-04-28T03:13:52.646Z,3.30
2019-04-28T03:16:23.194Z,3.10
2019-04-28T03:18:53.113Z,2.83
2019-04-28T03:21:22.793Z,2.63
2019-04-28T03:23:55.716Z,3.43
2019-04-28T03:26:32.750Z,2.90
2019-04-28T03:29:33.495Z,2.93
2019-04-28T03:32:38.020Z,3.07
2019-04-28T03:34:54.432Z,2.47
2019-04-28T03:37:24.535Z,4.13
2019-04-28T03:39:54.357Z,3.80
2019-04-28T03:42:23.962Z,2.90
2019-04-28T03:44:54.674Z,3.47
2019-04-28T03:47:24.257Z,2.97
2019-04-28T03:49:53.871Z,2.77
2019-04-28T03:52:23.480Z,2.90
2019-04-28T03:54:53.061Z,3.77
2019-04-28T03:57:22.690Z,4.63
2019-04-28T03:59:52.323Z,4.23
2019-04-28T04:02:23.739Z,4.40
2019-04-28T04:04:53.227Z,3.13
2019-04-28T04:07:22.851Z,5.40
2019-04-28T04:10:13.200Z,4.00
2019-04-28T04:12:50.659Z,4.80
2019-04-28T04:15:54.907Z,4.30
2019-04-28T04:18:40.649Z,5.87
2019-04-28T04:21:11.402Z,5.90
2019-04-28T04:23:41.581Z,4.60
2019-04-28T04:26:11.816Z,4.77
2019-04-28T04:28:42.030Z,5.03
2019-04-28T04:31:12.657Z,5.87
2019-04-28T04:33:42.275Z,5.90
2019-04-28T04:36:12.106Z,5.07
2019-04-28T04:38:46.032Z,5.90
2019-04-28T04:41:13.285Z,5.00
2019-04-28T04:43:42.954Z,5.67
2019-04-28T04:46:15.916Z,4.13
2019-04-28T04:48:45.874Z,5.23
2019-04-28T04:51:15.625Z,4.80
2019-04-28T04:53:45.305Z,4.50
2019-04-28T04:56:15.079Z,4.47
2019-04-28T04:58:44.680Z,5.00
2019-04-28T05:01:42.330Z,4.73
2019-04-28T05:04:50.629Z,3.37
2019-04-28T05:07:20.407Z,3.03
2019-04-28T05:09:50.026Z,3.57
2019-04-28T05:12:19.655Z,3.67
2019-04-28T05:14:49.493Z,3.37
2019-04-28T05:17:20.282Z,3.60
2019-04-28T05:19:49.994Z,3.17
2019-04-28T05:22:21.239Z,2.83
2019-04-28T05:25:02.888Z,2.67
2019-04-28T05:27:32.659Z,3.23
2019-04-28T05:30:05.199Z,3.37
2019-04-28T05:32:42.586Z,3.77
2019-04-28T05:35:05.953Z,3.50
2019-04-28T05:37:35.567Z,3.03
2019-04-28T05:40:05.573Z,2.33
2019-04-28T05:42:35.171Z,2.70
2019-04-28T05:45:05.130Z,3.50
2019-04-28T05:47:35.055Z,4.77
2019-04-28T05:50:13.414Z,3.37
2019-04-28T05:53:02.146Z,4.63
2019-04-28T05:55:50.923Z,3.80
2019-04-28T05:58:25.798Z,4.03
2019-04-28T06:01:07.190Z,4.17
2019-04-28T06:03:37.476Z,4.43
2019-04-28T06:06:07.676Z,4.30
2019-04-28T06:08:50.991Z,4.07
2019-04-28T06:11:54.603Z,3.67
2019-04-28T06:14:26.568Z,4.13
2019-04-28T06:17:06.197Z,4.10
2019-04-28T06:19:36.898Z,4.33
2019-04-28T06:22:08.181Z,4.73
2019-04-28T06:24:39.609Z,4.73
2019-04-28T06:27:10.620Z,3.57
2019-04-28T06:29:41.949Z,3.60
2019-04-28T06:32:12.464Z,3.40
2019-04-28T06:35:02.767Z,4.40
2019-04-28T06:37:35.130Z,4.03
2019-04-28T06:40:08.563Z,3.60
2019-04-28T06:42:38.970Z,3.73
2019-04-28T06:45:09.601Z,3.57
2019-04-28T06:47:39.933Z,3.30
2019-04-28T06:50:10.467Z,3.80
2019-04-28T06:52:43.017Z,3.80
2019-04-28T06:55:14.142Z,2.97
2019-04-28T06:57:45.887Z,2.67
2019-04-28T07:00:16.947Z,2.67
2019-04-28T07:02:47.553Z,3.57
2019-04-28T07:05:20.000Z,3.97
2019-04-28T07:07:54.571Z,3.73
2019-04-28T07:10:27.047Z,4.03
2019-04-28T07:13:08.636Z,4.63
2019-04-28T07:15:39.754Z,5.07
2019-04-28T07:18:12.026Z,4.93
2019-04-28T07:20:48.695Z,4.33
2019-04-28T07:23:19.047Z,5.10
2019-04-28T07:25:49.361Z,5.67
2019-04-28T07:28:19.743Z,5.07
2019-04-28T07:30:50.081Z,5.47
2019-04-28T07:33:21.223Z,4.27
2019-04-28T07:35:51.936Z,4.93
2019-04-28T07:38:22.298Z,4.90
2019-04-28T07:40:52.468Z,5.10
2019-04-28T07:43:22.828Z,5.60
2019-04-28T07:45:53.499Z,5.80
2019-04-28T07:48:24.538Z,4.40
2019-04-28T07:50:55.952Z,4.60
2019-04-28T07:53:33.202Z,6.30
2019-04-28T07:56:03.574Z,6.17
2019-04-28T07:58:34.703Z,6.03
2019-04-28T08:01:07.203Z,5.30
2019-04-28T08:03:48.837Z,6.57
2019-04-28T08:06:09.369Z,5.90
2019-04-28T08:08:39.928Z,5.80
2019-04-28T08:11:10.610Z,6.40
2019-04-28T08:13:45.207Z,6.43
2019-04-28T08:16:18.155Z,7.07
2019-04-28T08:18:48.632Z,5.40
2019-04-28T08:21:19.281Z,6.27
2019-04-28T08:23:49.565Z,4.30
2019-04-28T08:26:20.038Z,4.73
2019-04-28T08:28:51.544Z,5.47
2019-04-28T08:31:23.963Z,6.70
2019-04-28T08:34:04.080Z,4.90
2019-04-28T08:36:34.708Z,5.67
2019-04-28T08:39:07.187Z,5.13
2019-04-28T08:41:37.620Z,5.10
2019-04-28T08:44:08.535Z,5.20
2019-04-28T08:46:40.199Z,4.63
2019-04-28T08:49:10.382Z,4.53
2019-04-28T08:51:41.813Z,4.07
2019-04-28T08:54:13.822Z,3.37
2019-04-28T08:56:44.509Z,5.13
2019-04-28T08:59:14.218Z,5.07
2019-04-28T09:01:44.013Z,4.67
2019-04-28T09:04:15.654Z,4.20
2019-04-28T09:06:45.232Z,4.43
2019-04-28T09:09:16.362Z,4.77
2019-04-28T09:11:45.978Z,3.80
2019-04-28T09:14:15.594Z,4.77
2019-04-28T09:16:45.207Z,4.20
2019-04-28T09:19:20.029Z,4.50
2019-04-28T09:21:57.210Z,4.40
2019-04-28T09:24:29.447Z,4.87
2019-04-28T09:26:59.665Z,5.20
2019-04-28T09:29:31.313Z,5.37
2019-04-28T09:32:07.232Z,6.07
2019-04-28T09:34:38.214Z,4.90
2019-04-28T09:37:08.522Z,5.80
2019-04-28T09:39:46.370Z,5.57
2019-04-28T09:42:34.604Z,5.53
2019-04-28T09:45:10.522Z,6.00
2019-04-28T09:47:40.612Z,6.87
2019-04-28T09:50:13.515Z,6.17
2019-04-28T09:52:48.808Z,5.93
2019-04-28T09:55:18.763Z,6.03
2019-04-28T09:57:54.705Z,6.23
2019-04-28T10:00:25.565Z,5.97
2019-04-28T10:02:55.330Z,6.27
2019-04-28T10:05:25.167Z,4.97
2019-04-28T10:07:54.761Z,6.57
2019-04-28T10:10:24.443Z,6.47
2019-04-28T10:12:59.750Z,5.50
2019-04-28T10:15:29.452Z,4.97
2019-04-28T10:17:59.093Z,6.17
2019-04-28T10:20:28.918Z,5.03
2019-04-28T10:22:58.643Z,5.87
2019-04-28T10:25:28.283Z,5.47
2019-04-28T10:27:57.952Z,5.80
2019-04-28T10:30:27.685Z,5.83
2019-04-28T10:32:57.302Z,5.80
2019-04-28T10:35:26.955Z,5.37
2019-04-28T10:37:56.574Z,5.27
2019-04-28T10:40:45.062Z,5.80
2019-04-28T10:43:14.691Z,4.97
2019-04-28T10:45:46.857Z,5.87
2019-04-28T10:48:16.648Z,4.77
2019-04-28T10:50:46.402Z,5.53
2019-04-28T10:53:16.118Z,4.27
2019-04-28T10:55:45.918Z,4.20
2019-04-28T10:58:15.570Z,4.07
2019-04-28T11:00:45.301Z,4.67
2019-04-28T11:03:14.918Z,3.30
2019-04-28T11:05:45.400Z,4.67
2019-04-28T11:08:23.504Z,3.37
2019-04-28T11:10:53.292Z,4.10
2019-04-28T11:13:22.976Z,4.03
2019-04-28T11:15:52.622Z,4.57
2019-04-28T11:18:22.349Z,4.43
2019-04-28T11:20:52.130Z,4.33
2019-04-28T11:23:23.260Z,4.60
2019-04-28T11:25:53.178Z,4.33
2019-04-28T11:28:23.072Z,4.20
2019-04-28T11:30:52.829Z,5.20
2019-04-28T11:33:40.563Z,4.47
2019-04-28T11:36:10.361Z,4.90
2019-04-28T11:38:40.396Z,5.57
2019-04-28T11:41:11.694Z,3.23
2019-04-28T11:43:41.382Z,5.33
2019-04-28T11:46:13.096Z,5.10
2019-04-28T11:48:42.765Z,5.43
2019-04-28T11:51:15.206Z,5.27
2019-04-28T11:53:44.915Z,5.37
2019-04-28T11:56:16.347Z,6.47
2019-04-28T11:58:46.024Z,5.50
2019-04-28T12:01:17.731Z,6.27
2019-04-28T12:03:51.002Z,5.77
2019-04-28T12:06:20.693Z,6.13
2019-04-28T12:08:52.335Z,4.93
2019-04-28T12:11:30.127Z,4.23
2019-04-28T12:14:10.063Z,5.03
2019-04-28T12:16:57.748Z,5.30
2019-04-28T12:19:34.017Z,5.23
2019-04-28T12:22:03.989Z,5.03
2019-04-28T12:24:33.619Z,4.77
2019-04-28T12:27:03.261Z,5.37
2019-04-28T12:29:32.913Z,6.27
2019-04-28T12:32:02.721Z,5.23
2019-04-28T12:34:32.354Z,5.13
2019-04-28T12:37:02.013Z,6.13
2019-04-28T12:39:33.431Z,5.80
2019-04-28T12:42:05.422Z,5.83
2019-04-28T12:44:35.361Z,6.33
2019-04-28T12:47:05.225Z,6.00
2019-04-28T12:50:01.966Z,6.30
2019-04-28T12:52:31.689Z,5.33
2019-04-28T12:55:01.339Z,5.23
2019-04-28T12:57:30.949Z,6.77
2019-04-28T13:00:11.090Z,6.30
2019-04-28T13:02:49.150Z,6.10
2019-04-28T13:05:19.742Z,5.30
2019-04-28T13:07:49.357Z,5.80
2019-04-28T13:10:19.066Z,6.53
2019-04-28T13:12:48.733Z,5.47
2019-04-28T13:15:18.325Z,5.87
2019-04-28T13:17:47.948Z,5.93
2019-04-28T13:20:17.712Z,7.47
2019-04-28T13:22:47.338Z,4.87
2019-04-28T13:25:17.021Z,6.00
2019-04-28T13:27:46.733Z,6.23
2019-04-28T13:30:17.838Z,5.47
2019-04-28T13:32:47.563Z,5.47
2019-04-28T13:35:18.535Z,5.60
2019-04-28T13:37:48.222Z,5.77
2019-04-28T13:40:27.955Z,5.10
2019-04-28T13:43:04.084Z,4.53
2019-04-28T13:45:33.727Z,5.27
2019-04-28T13:48:03.527Z,4.50
2019-04-28T13:50:36.082Z,4.50
2019-04-28T13:53:06.486Z,4.77
2019-04-28T13:55:53.692Z,4.67
2019-04-28T13:58:26.705Z,5.17
2019-04-28T14:01:15.564Z,4.13
2019-04-28T14:04:04.481Z,4.70
2019-04-28T14:06:37.541Z,4.30
2019-04-28T14:09:12.346Z,5.80
2019-04-28T14:11:43.385Z,4.43
2019-04-28T14:14:13.494Z,4.03
2019-04-28T14:16:43.188Z,4.07
2019-04-28T14:19:15.792Z,5.10
2019-04-28T14:21:45.713Z,3.97
2019-04-28T14:24:15.342Z,4.37
2019-04-28T14:26:45.065Z,5.80
2019-04-28T14:29:14.798Z,3.77
2019-04-28T14:31:44.513Z,5.20
2019-04-28T14:34:14.558Z,3.47
2019-04-28T14:36:44.319Z,4.30
2019-04-28T14:39:25.897Z,4.97
2019-04-28T14:41:55.632Z,4.20
2019-04-28T14:44:26.520Z,4.13
2019-04-28T14:46:56.152Z,5.70
2019-04-28T14:49:25.841Z,7.07
2019-04-28T14:51:55.445Z,5.10
2019-04-28T14:54:25.066Z,5.00
2019-04-28T14:56:54.790Z,4.67
2019-04-28T14:59:24.425Z,4.93
2019-04-28T15:02:13.458Z,4.30
2019-04-28T15:05:01.331Z,3.83
2019-04-28T15:07:56.516Z,4.33
2019-04-28T15:10:35.194Z,4.60
2019-04-28T15:13:05.294Z,4.33
2019-04-28T15:15:35.018Z,4.40
2019-04-28T15:18:07.010Z,4.60
2019-04-28T15:20:36.670Z,4.90
2019-04-28T15:23:10.543Z,5.70
2019-04-28T15:25:45.794Z,5.13
2019-04-28T15:28:15.329Z,5.70
2019-04-28T15:30:46.181Z,6.30
2019-04-28T15:33:16.847Z,6.53
2019-04-28T15:35:56.465Z,6.17
2019-04-28T15:38:30.494Z,6.00
2019-04-28T15:41:05.838Z,5.67
2019-04-28T15:43:36.094Z,5.60
2019-04-28T15:46:11.431Z,6.13
2019-04-28T15:48:44.672Z,5.80
2019-04-28T15:51:15.439Z,4.53
2019-04-28T15:53:51.247Z,4.43
2019-04-28T15:56:35.265Z,3.87
2019-04-28T15:59:14.739Z,4.53
2019-04-28T16:01:45.542Z,4.33
2019-04-28T16:04:26.289Z,4.17
2019-04-28T16:07:01.730Z,4.27
2019-04-28T16:09:41.223Z,4.73
2019-04-28T16:12:19.900Z,4.60
2019-04-28T16:15:00.870Z,4.33
2019-04-28T16:17:34.734Z,5.03
2019-04-28T16:20:05.398Z,4.97
2019-04-28T16:22:39.738Z,5.33
2019-04-28T16:25:10.310Z,3.77
2019-04-28T16:27:40.285Z,4.07
2019-04-28T16:30:19.547Z,4.97
2019-04-28T16:33:00.589Z,4.77
2019-04-28T16:38:28.554Z,3.50
2019-04-28T16:41:45.271Z,3.97
2019-04-28T16:44:40.910Z,3.97
2019-04-28T16:47:27.353Z,3.70
2019-04-28T16:49:55.112Z,4.33
2019-04-28T16:52:26.408Z,4.40
2019-04-28T16:55:16.828Z,3.90
2019-04-28T16:58:07.850Z,3.83
2019-04-28T17:00:56.467Z,3.67
2019-04-28T17:03:33.516Z,4.73
2019-04-28T17:06:08.859Z,5.03
2019-04-28T17:08:39.354Z,5.23
2019-04-28T17:11:14.580Z,5.77
2019-04-28T17:13:47.576Z,4.97
2019-04-28T17:16:19.064Z,5.63
2019-04-28T17:18:50.802Z,5.67
2019-04-28T17:21:25.010Z,4.80
2019-04-28T17:23:59.538Z,5.87
2019-04-28T17:26:33.775Z,6.10
2019-04-28T17:29:10.231Z,5.50
2019-04-28T17:31:44.487Z,4.93
2019-04-28T17:34:24.893Z,5.90
2019-04-28T17:37:02.439Z,7.03
2019-04-28T17:39:40.532Z,5.73
2019-04-28T17:42:12.624Z,5.80
2019-04-28T17:44:45.021Z,5.47
2019-04-28T17:47:21.773Z,4.67
2019-04-28T17:49:55.103Z,5.00
2019-04-28T17:52:28.810Z,5.80
2019-04-28T17:55:06.329Z,5.10
2019-04-28T17:57:37.328Z,6.20
2019-04-28T18:00:22.046Z,6.33
2019-04-28T18:03:25.696Z,6.70
2019-04-28T18:06:17.081Z,6.87
2019-04-28T18:08:39.570Z,6.30
2019-04-28T18:11:14.682Z,6.60
2019-04-28T18:13:49.102Z,6.73
2019-04-28T18:16:43.855Z,6.43
2019-04-28T18:19:14.804Z,5.80
2019-04-28T18:21:51.737Z,6.03
2019-04-28T18:24:24.674Z,6.17
2019-04-28T18:26:59.990Z,6.80
2019-04-28T18:29:34.342Z,6.87
2019-04-28T18:32:23.807Z,6.97
2019-04-28T18:35:24.768Z,7.27
2019-04-28T18:38:04.665Z,7.17
2019-04-28T18:41:20.446Z,7.03
2019-04-28T18:44:11.229Z,7.10
2019-04-28T18:46:47.215Z,6.57
2019-04-28T18:49:26.232Z,7.90
2019-04-28T18:52:12.253Z,6.90
2019-04-28T18:54:41.689Z,6.30
2019-04-28T18:57:16.449Z,7.23
2019-04-28T18:59:50.847Z,8.80
2019-04-28T19:02:40.020Z,8.17
2019-04-28T19:05:17.499Z,6.37
2019-04-28T19:08:15.808Z,6.50
2019-04-28T19:11:20.832Z,6.87
2019-04-28T19:14:18.855Z,7.33
2019-04-28T19:17:19.322Z,8.67
2019-04-28T19:19:49.756Z,8.60
2019-04-28T19:22:20.573Z,7.57
2019-04-28T19:24:52.718Z,8.00
2019-04-28T19:27:25.476Z,7.00
2019-04-28T19:30:02.657Z,6.80
2019-04-28T19:32:35.811Z,7.67
2019-04-28T19:35:15.008Z,7.03
2019-04-28T19:37:51.944Z,8.53
2019-04-28T19:40:34.305Z,7.47
2019-04-28T19:43:08.357Z,8.97
2019-04-28T19:45:49.226Z,9.90
2019-04-28T19:48:22.770Z,9.70
2019-04-28T19:50:54.483Z,8.73
2019-04-28T19:53:24.166Z,8.80
2019-04-28T19:56:05.858Z,9.80
2019-04-28T19:58:46.133Z,10.07
2019-04-28T20:01:29.927Z,8.23
2019-04-28T20:03:59.554Z,8.83
2019-04-28T20:06:29.314Z,9.20
2019-04-28T20:08:58.930Z,9.30
2019-04-28T20:11:28.604Z,10.17
2019-04-28T20:13:58.272Z,9.57
2019-04-28T20:16:27.945Z,9.53
2019-04-28T20:18:58.770Z,11.10
2019-04-28T20:21:28.513Z,10.50
2019-04-28T20:23:58.204Z,9.90
2019-04-28T20:26:27.823Z,10.53
2019-04-28T20:28:58.186Z,9.33
2019-04-28T20:31:30.846Z,11.17
2019-04-28T20:34:00.498Z,9.73
2019-04-28T20:36:51.170Z,10.37
2019-04-28T20:39:27.684Z,11.90
2019-04-28T20:42:19.856Z,10.60
2019-04-28T20:44:49.826Z,10.07
2019-04-28T20:47:19.449Z,10.60
2019-04-28T20:49:49.098Z,10.23
2019-04-28T20:52:18.741Z,10.93
2019-04-28T20:54:48.374Z,11.20
2019-04-28T20:57:19.049Z,11.00
2019-04-28T20:59:48.679Z,12.40
2019-04-28T21:02:18.326Z,11.30
2019-04-28T21:04:48.030Z,12.93
2019-04-28T21:07:17.644Z,12.33
2019-04-28T21:09:47.244Z,13.27
2019-04-28T21:12:16.981Z,14.37
2019-04-28T21:14:46.753Z,14.07
2019-04-28T21:17:16.374Z,14.97
2019-04-28T21:19:47.125Z,16.90
2019-04-28T21:22:16.733Z,15.00
2019-04-28T21:24:46.483Z,18.90
2019-04-28T21:27:16.106Z,17.33
2019-04-28T21:29:45.780Z,19.50
2019-04-28T21:32:15.470Z,19.93
2019-04-28T21:34:45.191Z,18.20
2019-04-28T21:37:14.874Z,23.10
2019-04-28T21:39:44.601Z,22.30
2019-04-28T21:42:17.374Z,22.77
2019-04-28T21:45:09.202Z,22.40
2019-04-28T21:47:38.927Z,21.20
2019-04-28T21:50:08.738Z,24.63
2019-04-28T21:52:38.346Z,23.60
2019-04-28T21:55:07.973Z,24.50
2019-04-28T21:57:37.599Z,25.20
2019-04-28T22:00:09.590Z,24.70
2019-04-28T22:02:38.496Z,26.27
2019-04-28T22:05:09.307Z,25.23
2019-04-28T22:07:39.000Z,26.53
2019-04-28T22:10:08.859Z,26.10
2019-04-28T22:12:38.492Z,26.90
2019-04-28T22:15:08.237Z,26.30
2019-04-28T22:17:37.851Z,26.57
2019-04-28T22:20:08.037Z,25.67
2019-04-28T22:22:37.717Z,27.33
2019-04-28T22:25:12.454Z,26.97
2019-04-28T22:27:42.403Z,23.83
2019-04-28T22:30:12.357Z,24.43
2019-04-28T22:32:41.990Z,25.07
2019-04-28T22:35:12.233Z,22.03
2019-04-28T22:37:42.185Z,24.30
2019-04-28T22:40:12.151Z,23.77
2019-04-28T22:42:41.851Z,22.10
2019-04-28T22:45:12.308Z,21.63
2019-04-28T22:47:42.118Z,22.07
2019-04-28T22:50:35.336Z,23.20
2019-04-28T22:53:05.698Z,21.47
2019-04-28T22:55:39.557Z,21.47
2019-04-28T22:58:17.063Z,23.57
2019-04-28T23:00:53.982Z,21.10
2019-04-28T23:03:29.810Z,22.80
2019-04-28T23:05:59.422Z,23.03
2019-04-28T23:08:29.215Z,24.50
2019-04-28T23:10:58.822Z,23.03
2019-04-28T23:13:28.461Z,23.00
2019-04-28T23:15:58.078Z,21.10
2019-04-28T23:18:27.785Z,23.30
2019-04-28T23:21:00.547Z,21.80
2019-04-28T23:23:30.171Z,24.20
2019-04-28T23:26:03.048Z,22.77
2019-04-28T23:28:32.251Z,22.30
2019-04-28T23:31:02.203Z,23.60
2019-04-28T23:33:31.806Z,21.63
2019-04-28T23:36:01.411Z,21.87
2019-04-28T23:38:31.049Z,20.60
2019-04-28T23:41:09.513Z,20.43
2019-04-28T23:43:39.199Z,21.70
2019-04-28T23:46:08.967Z,22.30
2019-04-28T23:48:38.649Z,22.27
2019-04-28T23:51:16.138Z,23.37
2019-04-28T23:54:00.936Z,22.50
2019-04-28T23:56:30.555Z,21.17
2019-04-28T23:59:00.209Z,22.30
